sensor_id;sensor_type;location;lat;lon;timestamp;temperature;humidity
29777;DHT22;16677;52.224;7.484;2023-12-29T00:01:28;10.90;1.00
29777;DHT22;16677;52.224;7.484;2023-12-29T00:03:56;10.90;1.00
29777;DHT22;16677;52.224;7.484;2023-12-29T00:06:23;10.80;1.00
29777;DHT22;16677;52.224;7.484;2023-12-29T00:08:50;10.80;1.00
29777;DHT22;16677;52.224;7.484;2023-12-29T00:11:20;10.80;1.00
29777;DHT22;16677;52.224;7.484;2023-12-29T00:13:47;10.80;1.00
29777;DHT22;16677;52.224;7.484;2023-12-29T00:18:43;10.70;1.00
29777;DHT22;16677;52.224;7.484;2023-12-29T00:21:10;10.60;1.00
29777;DHT22;16677;52.224;7.484;2023-12-29T00:23:37;10.50;1.00
29777;DHT22;16677;52.224;7.484;2023-12-29T00:26:04;10.40;1.00
29777;DHT22;16677;52.224;7.484;2023-12-29T00:28:31;10.40;1.00
29777;DHT22;16677;52.224;7.484;2023-12-29T00:30:58;10.40;1.00
29777;DHT22;16677;52.224;7.484;2023-12-29T00:33:28;10.60;1.00
29777;DHT22;16677;52.224;7.484;2023-12-29T00:35:55;10.60;1.00
29777;DHT22;16677;52.224;7.484;2023-12-29T00:38:22;10.70;1.00
29777;DHT22;16677;52.224;7.484;2023-12-29T00:40:49;10.80;1.00
29777;DHT22;16677;52.224;7.484;2023-12-29T00:43:16;10.90;1.00
29777;DHT22;16677;52.224;7.484;2023-12-29T00:45:44;10.90;1.00
29777;DHT22;16677;52.224;7.484;2023-12-29T00:48:11;10.90;1.00
29777;DHT22;16677;52.224;7.484;2023-12-29T00:53:13;10.90;53.20
29777;DHT22;16677;52.224;7.484;2023-12-29T00:55:40;10.90;99.90
29777;DHT22;16677;52.224;7.484;2023-12-29T00:58:07;10.90;99.90
29777;DHT22;16677;52.224;7.484;2023-12-29T01:00:34;10.90;99.90
29777;DHT22;16677;52.224;7.484;2023-12-29T01:03:01;11.00;1.00
29777;DHT22;16677;52.224;7.484;2023-12-29T01:05:27;11.00;99.90
29777;DHT22;16677;52.224;7.484;2023-12-29T01:07:55;11.00;99.90
29777;DHT22;16677;52.224;7.484;2023-12-29T01:10:22;11.00;96.30
29777;DHT22;16677;52.224;7.484;2023-12-29T01:15:19;11.00;1.00
29777;DHT22;16677;52.224;7.484;2023-12-29T01:17:46;10.90;99.90
29777;DHT22;16677;52.224;7.484;2023-12-29T01:20:13;10.90;1.00
29777;DHT22;16677;52.224;7.484;2023-12-29T01:22:40;11.00;1.00
29777;DHT22;16677;52.224;7.484;2023-12-29T01:25:07;11.00;1.00
29777;DHT22;16677;52.224;7.484;2023-12-29T01:27:34;11.00;99.90
29777;DHT22;16677;52.224;7.484;2023-12-29T01:30:01;11.00;1.00
29777;DHT22;16677;52.224;7.484;2023-12-29T01:34:56;11.10;99.90
29777;DHT22;16677;52.224;7.484;2023-12-29T01:37:23;11.10;1.00
29777;DHT22;16677;52.224;7.484;2023-12-29T01:39:50;10.90;66.30
29777;DHT22;16677;52.224;7.484;2023-12-29T01:42:17;10.80;1.00
29777;DHT22;16677;52.224;7.484;2023-12-29T01:44:44;10.70;1.00
29777;DHT22;16677;52.224;7.484;2023-12-29T01:47:14;10.60;99.90
29777;DHT22;16677;52.224;7.484;2023-12-29T01:49:45;10.60;1.00
29777;DHT22;16677;52.224;7.484;2023-12-29T01:52:12;10.60;1.00
29777;DHT22;16677;52.224;7.484;2023-12-29T01:54:40;10.50;1.00
29777;DHT22;16677;52.224;7.484;2023-12-29T01:57:09;10.60;1.00
29777;DHT22;16677;52.224;7.484;2023-12-29T01:59:36;10.60;99.90
29777;DHT22;16677;52.224;7.484;2023-12-29T02:02:04;10.70;99.90
29777;DHT22;16677;52.224;7.484;2023-12-29T02:04:31;10.80;99.90
29777;DHT22;16677;52.224;7.484;2023-12-29T02:06:59;10.80;1.00
29777;DHT22;16677;52.224;7.484;2023-12-29T02:09:26;10.80;99.90
29777;DHT22;16677;52.224;7.484;2023-12-29T02:11:54;10.90;1.00
29777;DHT22;16677;52.224;7.484;2023-12-29T02:14:21;11.00;99.90
29777;DHT22;16677;52.224;7.484;2023-12-29T02:24:16;10.90;1.00
29777;DHT22;16677;52.224;7.484;2023-12-29T02:26:44;10.90;1.00
29777;DHT22;16677;52.224;7.484;2023-12-29T02:29:14;10.90;1.00
29777;DHT22;16677;52.224;7.484;2023-12-29T02:31:42;10.90;99.90
29777;DHT22;16677;52.224;7.484;2023-12-29T02:34:11;10.80;1.00
29777;DHT22;16677;52.224;7.484;2023-12-29T02:36:39;10.70;99.90
29777;DHT22;16677;52.224;7.484;2023-12-29T02:39:09;10.50;55.40
29777;DHT22;16677;52.224;7.484;2023-12-29T02:41:37;10.20;99.90
29777;DHT22;16677;52.224;7.484;2023-12-29T02:44:04;10.20;99.90
29777;DHT22;16677;52.224;7.484;2023-12-29T02:46:31;10.00;1.00
29777;DHT22;16677;52.224;7.484;2023-12-29T02:48:58;10.00;1.00
29777;DHT22;16677;52.224;7.484;2023-12-29T02:51:26;9.90;1.00
29777;DHT22;16677;52.224;7.484;2023-12-29T02:53:53;9.90;1.00
29777;DHT22;16677;52.224;7.484;2023-12-29T02:56:20;9.80;1.00
29777;DHT22;16677;52.224;7.484;2023-12-29T02:58:46;9.80;1.00
29777;DHT22;16677;52.224;7.484;2023-12-29T03:01:14;9.80;1.00
29777;DHT22;16677;52.224;7.484;2023-12-29T03:03:41;9.80;1.00
29777;DHT22;16677;52.224;7.484;2023-12-29T03:06:08;9.80;1.00
29777;DHT22;16677;52.224;7.484;2023-12-29T03:08:35;9.90;99.90
29777;DHT22;16677;52.224;7.484;2023-12-29T03:11:02;9.90;99.90
29777;DHT22;16677;52.224;7.484;2023-12-29T03:13:29;9.90;99.90
29777;DHT22;16677;52.224;7.484;2023-12-29T03:15:56;9.90;1.00
29777;DHT22;16677;52.224;7.484;2023-12-29T03:18:23;9.90;1.00
29777;DHT22;16677;52.224;7.484;2023-12-29T03:20:50;9.90;99.90
29777;DHT22;16677;52.224;7.484;2023-12-29T03:23:17;9.90;99.60
29777;DHT22;16677;52.224;7.484;2023-12-29T03:25:43;9.90;99.90
29777;DHT22;16677;52.224;7.484;2023-12-29T03:28:11;9.90;1.00
29777;DHT22;16677;52.224;7.484;2023-12-29T03:30:38;9.90;1.00
29777;DHT22;16677;52.224;7.484;2023-12-29T03:33:05;9.80;99.90
29777;DHT22;16677;52.224;7.484;2023-12-29T03:35:32;9.90;99.90
29777;DHT22;16677;52.224;7.484;2023-12-29T03:37:59;9.90;99.90
29777;DHT22;16677;52.224;7.484;2023-12-29T03:40:26;9.90;99.90
29777;DHT22;16677;52.224;7.484;2023-12-29T03:42:53;10.10;99.90
29777;DHT22;16677;52.224;7.484;2023-12-29T03:45:20;10.10;99.90
29777;DHT22;16677;52.224;7.484;2023-12-29T03:47:47;10.10;99.90
29777;DHT22;16677;52.224;7.484;2023-12-29T03:50:14;10.10;99.90
29777;DHT22;16677;52.224;7.484;2023-12-29T03:52:41;10.10;99.90
29777;DHT22;16677;52.224;7.484;2023-12-29T03:55:08;10.10;99.90
29777;DHT22;16677;52.224;7.484;2023-12-29T03:57:35;10.10;99.90
29777;DHT22;16677;52.224;7.484;2023-12-29T04:00:02;10.10;99.90
29777;DHT22;16677;52.224;7.484;2023-12-29T04:02:29;10.10;99.90
29777;DHT22;16677;52.224;7.484;2023-12-29T04:04:56;10.10;99.90
29777;DHT22;16677;52.224;7.484;2023-12-29T04:07:23;10.10;99.90
29777;DHT22;16677;52.224;7.484;2023-12-29T04:09:50;10.10;99.90
29777;DHT22;16677;52.224;7.484;2023-12-29T04:12:16;10.10;99.90
29777;DHT22;16677;52.224;7.484;2023-12-29T04:14:43;10.10;99.90
29777;DHT22;16677;52.224;7.484;2023-12-29T04:17:10;10.10;99.90
29777;DHT22;16677;52.224;7.484;2023-12-29T04:19:41;10.10;99.90
29777;DHT22;16677;52.224;7.484;2023-12-29T04:22:08;10.10;99.90
29777;DHT22;16677;52.224;7.484;2023-12-29T04:24:37;10.10;98.50
29777;DHT22;16677;52.224;7.484;2023-12-29T04:27:04;10.20;94.00
29777;DHT22;16677;52.224;7.484;2023-12-29T04:29:31;10.20;91.00
29777;DHT22;16677;52.224;7.484;2023-12-29T04:31:58;10.20;81.50
29777;DHT22;16677;52.224;7.484;2023-12-29T04:34:25;10.20;75.30
29777;DHT22;16677;52.224;7.484;2023-12-29T04:36:52;10.20;59.50
29777;DHT22;16677;52.224;7.484;2023-12-29T04:39:19;10.30;48.60
29777;DHT22;16677;52.224;7.484;2023-12-29T04:41:45;10.30;28.20
29777;DHT22;16677;52.224;7.484;2023-12-29T04:44:12;10.40;16.00
29777;DHT22;16677;52.224;7.484;2023-12-29T04:46:39;10.40;10.90
29777;DHT22;16677;52.224;7.484;2023-12-29T04:49:06;10.40;9.90
29777;DHT22;16677;52.224;7.484;2023-12-29T04:51:33;10.40;16.30
29777;DHT22;16677;52.224;7.484;2023-12-29T04:54:00;10.30;54.20
29777;DHT22;16677;52.224;7.484;2023-12-29T04:56:27;10.10;99.90
29777;DHT22;16677;52.224;7.484;2023-12-29T04:58:53;10.00;99.90
29777;DHT22;16677;52.224;7.484;2023-12-29T05:01:20;9.90;99.90
29777;DHT22;16677;52.224;7.484;2023-12-29T05:03:47;9.90;99.90
29777;DHT22;16677;52.224;7.484;2023-12-29T05:06:14;9.80;99.90
29777;DHT22;16677;52.224;7.484;2023-12-29T05:08:41;9.80;99.90
29777;DHT22;16677;52.224;7.484;2023-12-29T05:11:08;9.80;99.90
29777;DHT22;16677;52.224;7.484;2023-12-29T05:13:35;9.80;99.90
29777;DHT22;16677;52.224;7.484;2023-12-29T05:16:02;9.80;99.90
29777;DHT22;16677;52.224;7.484;2023-12-29T05:18:30;9.70;99.90
29777;DHT22;16677;52.224;7.484;2023-12-29T05:20:57;9.60;99.90
29777;DHT22;16677;52.224;7.484;2023-12-29T05:23:24;9.60;99.90
29777;DHT22;16677;52.224;7.484;2023-12-29T05:25:51;9.50;99.90
29777;DHT22;16677;52.224;7.484;2023-12-29T05:28:18;9.60;99.90
29777;DHT22;16677;52.224;7.484;2023-12-29T05:30:45;9.60;99.90
29777;DHT22;16677;52.224;7.484;2023-12-29T05:33:14;9.70;99.90
29777;DHT22;16677;52.224;7.484;2023-12-29T05:35:41;9.60;99.90
29777;DHT22;16677;52.224;7.484;2023-12-29T05:38:08;9.60;99.90
29777;DHT22;16677;52.224;7.484;2023-12-29T05:40:35;9.80;29.40
29777;DHT22;16677;52.224;7.484;2023-12-29T05:43:02;9.80;1.00
29777;DHT22;16677;52.224;7.484;2023-12-29T05:45:29;10.00;1.00
29777;DHT22;16677;52.224;7.484;2023-12-29T05:47:56;10.10;1.00
29777;DHT22;16677;52.224;7.484;2023-12-29T05:50:23;10.20;1.00
29777;DHT22;16677;52.224;7.484;2023-12-29T05:52:50;10.20;1.00
29777;DHT22;16677;52.224;7.484;2023-12-29T05:55:18;10.20;1.00
29777;DHT22;16677;52.224;7.484;2023-12-29T05:57:45;10.20;1.00
29777;DHT22;16677;52.224;7.484;2023-12-29T06:00:12;10.20;1.00
29777;DHT22;16677;52.224;7.484;2023-12-29T06:02:41;10.20;99.90
29777;DHT22;16677;52.224;7.484;2023-12-29T06:05:11;10.30;99.90
29777;DHT22;16677;52.224;7.484;2023-12-29T06:10:13;10.30;99.90
29777;DHT22;16677;52.224;7.484;2023-12-29T06:12:40;10.30;32.00
29777;DHT22;16677;52.224;7.484;2023-12-29T06:15:08;10.30;51.50
29777;DHT22;16677;52.224;7.484;2023-12-29T06:17:35;10.30;1.00
29777;DHT22;16677;52.224;7.484;2023-12-29T06:20:02;10.30;99.90
29777;DHT22;16677;52.224;7.484;2023-12-29T06:22:32;10.40;99.90
29777;DHT22;16677;52.224;7.484;2023-12-29T06:24:59;10.40;1.00
29777;DHT22;16677;52.224;7.484;2023-12-29T06:27:26;10.40;1.00
29777;DHT22;16677;52.224;7.484;2023-12-29T06:29:53;10.40;99.90
29777;DHT22;16677;52.224;7.484;2023-12-29T06:32:19;10.40;99.90
29777;DHT22;16677;52.224;7.484;2023-12-29T06:34:47;10.40;1.00
29777;DHT22;16677;52.224;7.484;2023-12-29T06:37:14;10.40;99.90
29777;DHT22;16677;52.224;7.484;2023-12-29T06:39:41;10.40;1.00
29777;DHT22;16677;52.224;7.484;2023-12-29T06:42:08;10.40;99.90
29777;DHT22;16677;52.224;7.484;2023-12-29T06:44:35;10.40;1.00
29777;DHT22;16677;52.224;7.484;2023-12-29T06:47:02;10.50;99.90
29777;DHT22;16677;52.224;7.484;2023-12-29T06:49:31;10.40;99.90
29777;DHT22;16677;52.224;7.484;2023-12-29T06:51:58;10.40;99.90
29777;DHT22;16677;52.224;7.484;2023-12-29T06:54:25;10.40;99.90
29777;DHT22;16677;52.224;7.484;2023-12-29T06:56:52;10.50;1.00
29777;DHT22;16677;52.224;7.484;2023-12-29T06:59:19;10.40;1.00
29777;DHT22;16677;52.224;7.484;2023-12-29T07:01:46;10.50;99.90
29777;DHT22;16677;52.224;7.484;2023-12-29T07:04:13;10.40;99.90
29777;DHT22;16677;52.224;7.484;2023-12-29T07:06:42;10.40;99.90
29777;DHT22;16677;52.224;7.484;2023-12-29T07:09:09;10.40;29.00
29777;DHT22;16677;52.224;7.484;2023-12-29T07:11:36;10.40;99.90
29777;DHT22;16677;52.224;7.484;2023-12-29T07:14:03;10.40;92.20
29777;DHT22;16677;52.224;7.484;2023-12-29T07:16:30;10.40;99.90
29777;DHT22;16677;52.224;7.484;2023-12-29T07:18:57;10.50;99.90
29777;DHT22;16677;52.224;7.484;2023-12-29T07:21:24;10.50;99.90
29777;DHT22;16677;52.224;7.484;2023-12-29T07:23:51;10.50;1.00
29777;DHT22;16677;52.224;7.484;2023-12-29T07:26:18;10.40;1.00
29777;DHT22;16677;52.224;7.484;2023-12-29T07:28:45;10.40;1.00
29777;DHT22;16677;52.224;7.484;2023-12-29T07:31:12;10.40;99.90
29777;DHT22;16677;52.224;7.484;2023-12-29T07:33:39;10.40;99.90
29777;DHT22;16677;52.224;7.484;2023-12-29T07:36:06;10.50;1.00
29777;DHT22;16677;52.224;7.484;2023-12-29T07:38:33;10.50;1.00
29777;DHT22;16677;52.224;7.484;2023-12-29T07:41:00;10.40;99.90
29777;DHT22;16677;52.224;7.484;2023-12-29T07:43:27;10.40;1.00
29777;DHT22;16677;52.224;7.484;2023-12-29T07:45:54;10.40;1.00
29777;DHT22;16677;52.224;7.484;2023-12-29T07:48:21;10.40;1.00
29777;DHT22;16677;52.224;7.484;2023-12-29T07:53:22;10.50;99.90
29777;DHT22;16677;52.224;7.484;2023-12-29T07:55:49;10.40;25.00
29777;DHT22;16677;52.224;7.484;2023-12-29T07:58:17;10.40;99.90
29777;DHT22;16677;52.224;7.484;2023-12-29T08:00:43;10.50;99.90
29777;DHT22;16677;52.224;7.484;2023-12-29T08:03:11;10.50;64.60
29777;DHT22;16677;52.224;7.484;2023-12-29T08:05:37;10.50;1.00
29777;DHT22;16677;52.224;7.484;2023-12-29T08:08:05;10.50;99.90
29777;DHT22;16677;52.224;7.484;2023-12-29T08:10:32;10.40;1.00
29777;DHT22;16677;52.224;7.484;2023-12-29T08:12:59;10.40;99.90
29777;DHT22;16677;52.224;7.484;2023-12-29T08:15:26;10.30;1.00
29777;DHT22;16677;52.224;7.484;2023-12-29T08:17:53;10.20;1.00
29777;DHT22;16677;52.224;7.484;2023-12-29T08:20:20;10.10;1.00
29777;DHT22;16677;52.224;7.484;2023-12-29T08:22:49;10.10;1.00
29777;DHT22;16677;52.224;7.484;2023-12-29T08:25:16;10.00;1.00
29777;DHT22;16677;52.224;7.484;2023-12-29T08:27:43;9.90;1.00
29777;DHT22;16677;52.224;7.484;2023-12-29T08:30:10;9.80;1.00
29777;DHT22;16677;52.224;7.484;2023-12-29T08:32:37;9.60;1.00
29777;DHT22;16677;52.224;7.484;2023-12-29T08:35:04;9.60;1.00
29777;DHT22;16677;52.224;7.484;2023-12-29T08:37:31;9.50;1.00
29777;DHT22;16677;52.224;7.484;2023-12-29T08:40:00;9.40;1.00
29777;DHT22;16677;52.224;7.484;2023-12-29T08:42:27;9.40;1.00
29777;DHT22;16677;52.224;7.484;2023-12-29T08:44:54;9.40;99.90
29777;DHT22;16677;52.224;7.484;2023-12-29T08:49:49;9.40;99.90
29777;DHT22;16677;52.224;7.484;2023-12-29T08:52:17;9.30;1.00
29777;DHT22;16677;52.224;7.484;2023-12-29T08:54:44;9.30;99.90
29777;DHT22;16677;52.224;7.484;2023-12-29T08:57:10;9.30;1.00
29777;DHT22;16677;52.224;7.484;2023-12-29T08:59:37;9.30;1.00
29777;DHT22;16677;52.224;7.484;2023-12-29T09:02:05;9.40;1.00
29777;DHT22;16677;52.224;7.484;2023-12-29T09:04:32;9.40;1.00
29777;DHT22;16677;52.224;7.484;2023-12-29T09:06:59;9.40;1.00
29777;DHT22;16677;52.224;7.484;2023-12-29T09:09:26;9.40;1.00
29777;DHT22;16677;52.224;7.484;2023-12-29T09:11:53;9.30;1.00
29777;DHT22;16677;52.224;7.484;2023-12-29T09:14:20;9.40;1.00
29777;DHT22;16677;52.224;7.484;2023-12-29T09:16:47;9.40;1.00
29777;DHT22;16677;52.224;7.484;2023-12-29T09:19:14;9.50;1.00
29777;DHT22;16677;52.224;7.484;2023-12-29T09:21:52;9.50;1.00
29777;DHT22;16677;52.224;7.484;2023-12-29T09:24:19;9.50;1.00
29777;DHT22;16677;52.224;7.484;2023-12-29T09:26:48;9.60;1.00
29777;DHT22;16677;52.224;7.484;2023-12-29T09:29:15;9.70;1.00
29777;DHT22;16677;52.224;7.484;2023-12-29T09:31:42;9.70;1.00
29777;DHT22;16677;52.224;7.484;2023-12-29T09:34:09;9.70;1.00
29777;DHT22;16677;52.224;7.484;2023-12-29T09:36:36;9.80;1.00
29777;DHT22;16677;52.224;7.484;2023-12-29T09:39:03;9.80;1.00
29777;DHT22;16677;52.224;7.484;2023-12-29T09:41:31;9.80;1.00
29777;DHT22;16677;52.224;7.484;2023-12-29T09:43:58;9.80;1.00
29777;DHT22;16677;52.224;7.484;2023-12-29T09:46:28;9.90;1.00
29777;DHT22;16677;52.224;7.484;2023-12-29T09:48:56;9.90;1.00
29777;DHT22;16677;52.224;7.484;2023-12-29T09:51:25;10.00;1.00
29777;DHT22;16677;52.224;7.484;2023-12-29T09:53:51;10.00;99.90
29777;DHT22;16677;52.224;7.484;2023-12-29T09:56:19;10.00;1.00
29777;DHT22;16677;52.224;7.484;2023-12-29T09:58:47;10.10;99.90
29777;DHT22;16677;52.224;7.484;2023-12-29T10:01:14;10.10;99.90
29777;DHT22;16677;52.224;7.484;2023-12-29T10:03:44;10.20;99.90
29777;DHT22;16677;52.224;7.484;2023-12-29T10:06:11;10.20;93.50
29777;DHT22;16677;52.224;7.484;2023-12-29T10:08:39;10.20;39.10
29777;DHT22;16677;52.224;7.484;2023-12-29T10:11:11;10.30;99.90
29777;DHT22;16677;52.224;7.484;2023-12-29T10:13:39;10.40;1.00
29777;DHT22;16677;52.224;7.484;2023-12-29T10:16:08;10.40;99.90
29777;DHT22;16677;52.224;7.484;2023-12-29T10:18:43;10.40;1.00
29777;DHT22;16677;52.224;7.484;2023-12-29T10:21:21;10.50;1.00
29777;DHT22;16677;52.224;7.484;2023-12-29T10:23:52;10.50;1.00
29777;DHT22;16677;52.224;7.484;2023-12-29T10:26:21;10.50;99.90
29777;DHT22;16677;52.224;7.484;2023-12-29T10:28:49;10.60;99.90
29777;DHT22;16677;52.224;7.484;2023-12-29T10:31:16;10.60;99.90
29777;DHT22;16677;52.224;7.484;2023-12-29T10:33:44;10.60;1.00
29777;DHT22;16677;52.224;7.484;2023-12-29T10:36:17;10.70;1.00
29777;DHT22;16677;52.224;7.484;2023-12-29T10:38:44;10.60;99.90
29777;DHT22;16677;52.224;7.484;2023-12-29T10:41:12;10.60;1.00
29777;DHT22;16677;52.224;7.484;2023-12-29T10:43:43;10.70;99.90
29777;DHT22;16677;52.224;7.484;2023-12-29T10:46:11;10.70;4.60
29777;DHT22;16677;52.224;7.484;2023-12-29T10:48:39;10.70;1.00
29777;DHT22;16677;52.224;7.484;2023-12-29T10:51:06;10.70;99.90
29777;DHT22;16677;52.224;7.484;2023-12-29T10:53:33;10.80;1.00
29777;DHT22;16677;52.224;7.484;2023-12-29T10:56:16;10.80;1.00
29777;DHT22;16677;52.224;7.484;2023-12-29T10:58:43;10.80;1.00
29777;DHT22;16677;52.224;7.484;2023-12-29T11:01:16;10.90;1.00
29777;DHT22;16677;52.224;7.484;2023-12-29T11:03:57;11.10;99.90
29777;DHT22;16677;52.224;7.484;2023-12-29T11:06:39;11.00;99.90
29777;DHT22;16677;52.224;7.484;2023-12-29T11:09:06;11.10;99.90
29777;DHT22;16677;52.224;7.484;2023-12-29T11:11:33;11.00;99.90
29777;DHT22;16677;52.224;7.484;2023-12-29T11:14:02;11.00;99.90
29777;DHT22;16677;52.224;7.484;2023-12-29T11:16:30;11.00;99.90
29777;DHT22;16677;52.224;7.484;2023-12-29T11:18:58;11.00;99.90
29777;DHT22;16677;52.224;7.484;2023-12-29T11:21:26;11.10;99.90
29777;DHT22;16677;52.224;7.484;2023-12-29T11:23:53;11.00;99.90
29777;DHT22;16677;52.224;7.484;2023-12-29T11:26:20;11.00;99.90
29777;DHT22;16677;52.224;7.484;2023-12-29T11:28:47;11.00;1.00
29777;DHT22;16677;52.224;7.484;2023-12-29T11:31:17;11.00;99.90
29777;DHT22;16677;52.224;7.484;2023-12-29T11:33:46;11.00;99.90
29777;DHT22;16677;52.224;7.484;2023-12-29T11:36:17;11.00;99.90
29777;DHT22;16677;52.224;7.484;2023-12-29T11:41:43;11.00;99.90
29777;DHT22;16677;52.224;7.484;2023-12-29T11:44:14;11.10;99.90
29777;DHT22;16677;52.224;7.484;2023-12-29T11:46:51;11.10;99.90
29777;DHT22;16677;52.224;7.484;2023-12-29T11:49:17;11.00;99.90
29777;DHT22;16677;52.224;7.484;2023-12-29T11:51:49;11.00;99.90
29777;DHT22;16677;52.224;7.484;2023-12-29T11:54:22;11.10;99.90
29777;DHT22;16677;52.224;7.484;2023-12-29T11:56:50;11.10;99.80
29777;DHT22;16677;52.224;7.484;2023-12-29T11:59:21;11.10;99.90
29777;DHT22;16677;52.224;7.484;2023-12-29T12:01:51;11.10;99.90
29777;DHT22;16677;52.224;7.484;2023-12-29T12:07:05;11.10;99.90
29777;DHT22;16677;52.224;7.484;2023-12-29T12:09:34;11.10;99.90
29777;DHT22;16677;52.224;7.484;2023-12-29T12:12:02;11.10;99.90
29777;DHT22;16677;52.224;7.484;2023-12-29T12:17:12;11.20;99.90
29777;DHT22;16677;52.224;7.484;2023-12-29T12:19:39;11.10;1.00
29777;DHT22;16677;52.224;7.484;2023-12-29T12:22:06;11.10;55.10
29777;DHT22;16677;52.224;7.484;2023-12-29T12:24:36;11.10;1.00
29777;DHT22;16677;52.224;7.484;2023-12-29T12:27:07;11.20;1.00
29777;DHT22;16677;52.224;7.484;2023-12-29T12:29:35;11.20;26.90
29777;DHT22;16677;52.224;7.484;2023-12-29T12:32:03;11.20;1.00
29777;DHT22;16677;52.224;7.484;2023-12-29T12:34:36;11.20;1.00
29777;DHT22;16677;52.224;7.484;2023-12-29T12:37:03;11.30;1.00
29777;DHT22;16677;52.224;7.484;2023-12-29T12:39:40;11.30;1.00
29777;DHT22;16677;52.224;7.484;2023-12-29T12:42:07;11.30;1.00
29777;DHT22;16677;52.224;7.484;2023-12-29T12:44:34;11.30;1.00
29777;DHT22;16677;52.224;7.484;2023-12-29T12:47:06;11.30;1.00
29777;DHT22;16677;52.224;7.484;2023-12-29T12:49:34;11.30;1.00
29777;DHT22;16677;52.224;7.484;2023-12-29T12:52:02;11.30;1.00
29777;DHT22;16677;52.224;7.484;2023-12-29T12:54:29;11.30;1.00
29777;DHT22;16677;52.224;7.484;2023-12-29T12:56:58;11.30;1.00
29777;DHT22;16677;52.224;7.484;2023-12-29T12:59:26;11.40;1.00
29777;DHT22;16677;52.224;7.484;2023-12-29T13:01:53;11.20;1.00
29777;DHT22;16677;52.224;7.484;2023-12-29T13:04:20;11.30;1.00
29777;DHT22;16677;52.224;7.484;2023-12-29T13:06:48;11.20;1.00
29777;DHT22;16677;52.224;7.484;2023-12-29T13:09:18;11.20;1.00
29777;DHT22;16677;52.224;7.484;2023-12-29T13:11:46;11.20;1.00
29777;DHT22;16677;52.224;7.484;2023-12-29T13:14:20;11.20;1.00
29777;DHT22;16677;52.224;7.484;2023-12-29T13:16:48;11.20;1.00
29777;DHT22;16677;52.224;7.484;2023-12-29T13:19:20;11.30;1.00
29777;DHT22;16677;52.224;7.484;2023-12-29T13:21:48;11.20;99.90
29777;DHT22;16677;52.224;7.484;2023-12-29T13:24:15;11.20;1.00
29777;DHT22;16677;52.224;7.484;2023-12-29T13:26:46;11.20;99.90
29777;DHT22;16677;52.224;7.484;2023-12-29T13:29:19;11.20;99.90
29777;DHT22;16677;52.224;7.484;2023-12-29T13:31:52;11.20;1.00
29777;DHT22;16677;52.224;7.484;2023-12-29T13:34:31;11.20;1.00
29777;DHT22;16677;52.224;7.484;2023-12-29T13:37:16;11.10;1.00
29777;DHT22;16677;52.224;7.484;2023-12-29T13:42:30;11.10;1.00
29777;DHT22;16677;52.224;7.484;2023-12-29T13:45:03;10.90;95.80
29777;DHT22;16677;52.224;7.484;2023-12-29T13:47:31;11.00;93.40
29777;DHT22;16677;52.224;7.484;2023-12-29T13:49:59;11.10;7.50
29777;DHT22;16677;52.224;7.484;2023-12-29T13:52:26;11.00;99.90
29777;DHT22;16677;52.224;7.484;2023-12-29T13:54:53;11.00;92.50
29777;DHT22;16677;52.224;7.484;2023-12-29T13:57:33;11.00;21.20
29777;DHT22;16677;52.224;7.484;2023-12-29T14:07:58;11.00;4.10
29777;DHT22;16677;52.224;7.484;2023-12-29T14:10:32;11.00;74.20
29777;DHT22;16677;52.224;7.484;2023-12-29T14:13:13;11.00;49.80
29777;DHT22;16677;52.224;7.484;2023-12-29T14:15:44;11.00;70.60
29777;DHT22;16677;52.224;7.484;2023-12-29T14:18:42;11.00;99.40
29777;DHT22;16677;52.224;7.484;2023-12-29T14:26:29;10.90;1.00
29777;DHT22;16677;52.224;7.484;2023-12-29T14:29:03;10.90;1.00
29777;DHT22;16677;52.224;7.484;2023-12-29T14:31:31;10.90;1.00
29777;DHT22;16677;52.224;7.484;2023-12-29T14:33:59;10.90;1.00
29777;DHT22;16677;52.224;7.484;2023-12-29T14:36:27;10.90;1.00
29777;DHT22;16677;52.224;7.484;2023-12-29T14:38:54;10.80;1.00
29777;DHT22;16677;52.224;7.484;2023-12-29T14:41:21;10.70;1.00
29777;DHT22;16677;52.224;7.484;2023-12-29T14:43:48;10.70;1.00
29777;DHT22;16677;52.224;7.484;2023-12-29T14:46:14;10.70;1.00
29777;DHT22;16677;52.224;7.484;2023-12-29T14:48:42;10.60;1.00
29777;DHT22;16677;52.224;7.484;2023-12-29T14:51:09;10.50;7.80
29777;DHT22;16677;52.224;7.484;2023-12-29T14:53:37;10.60;99.90
29777;DHT22;16677;52.224;7.484;2023-12-29T14:56:04;10.70;99.90
29777;DHT22;16677;52.224;7.484;2023-12-29T14:58:32;10.70;99.90
29777;DHT22;16677;52.224;7.484;2023-12-29T15:01:03;10.60;99.90
29777;DHT22;16677;52.224;7.484;2023-12-29T15:03:30;10.60;99.90
29777;DHT22;16677;52.224;7.484;2023-12-29T15:05:58;10.50;99.90
29777;DHT22;16677;52.224;7.484;2023-12-29T15:08:25;10.50;1.00
29777;DHT22;16677;52.224;7.484;2023-12-29T15:10:53;10.50;1.00
29777;DHT22;16677;52.224;7.484;2023-12-29T15:13:20;10.50;1.00
29777;DHT22;16677;52.224;7.484;2023-12-29T15:15:46;10.50;1.00
29777;DHT22;16677;52.224;7.484;2023-12-29T15:18:13;10.50;1.00
29777;DHT22;16677;52.224;7.484;2023-12-29T15:20:40;10.50;1.00
29777;DHT22;16677;52.224;7.484;2023-12-29T15:23:08;10.50;1.00
29777;DHT22;16677;52.224;7.484;2023-12-29T15:25:35;10.50;1.00
29777;DHT22;16677;52.224;7.484;2023-12-29T15:28:03;10.50;1.00
29777;DHT22;16677;52.224;7.484;2023-12-29T15:30:31;10.60;1.00
29777;DHT22;16677;52.224;7.484;2023-12-29T15:32:58;10.50;1.00
29777;DHT22;16677;52.224;7.484;2023-12-29T15:35:25;10.60;1.00
29777;DHT22;16677;52.224;7.484;2023-12-29T15:37:53;10.60;1.00
29777;DHT22;16677;52.224;7.484;2023-12-29T15:40:20;10.50;32.20
29777;DHT22;16677;52.224;7.484;2023-12-29T15:42:47;10.50;99.90
29777;DHT22;16677;52.224;7.484;2023-12-29T15:45:16;10.50;99.90
29777;DHT22;16677;52.224;7.484;2023-12-29T15:47:45;10.50;1.00
29777;DHT22;16677;52.224;7.484;2023-12-29T15:50:12;10.40;99.90
29777;DHT22;16677;52.224;7.484;2023-12-29T15:52:40;10.30;48.40
29777;DHT22;16677;52.224;7.484;2023-12-29T15:55:07;10.20;46.00
29777;DHT22;16677;52.224;7.484;2023-12-29T15:57:34;10.10;99.90
29777;DHT22;16677;52.224;7.484;2023-12-29T16:00:01;9.80;1.00
29777;DHT22;16677;52.224;7.484;2023-12-29T16:02:28;9.80;1.00
29777;DHT22;16677;52.224;7.484;2023-12-29T16:04:55;9.60;99.90
29777;DHT22;16677;52.224;7.484;2023-12-29T16:07:22;9.60;99.90
29777;DHT22;16677;52.224;7.484;2023-12-29T16:09:49;9.60;99.90
29777;DHT22;16677;52.224;7.484;2023-12-29T16:12:16;9.50;1.00
29777;DHT22;16677;52.224;7.484;2023-12-29T16:14:43;9.50;1.00
29777;DHT22;16677;52.224;7.484;2023-12-29T16:17:10;9.40;99.90
29777;DHT22;16677;52.224;7.484;2023-12-29T16:19:36;9.40;1.00
29777;DHT22;16677;52.224;7.484;2023-12-29T16:22:04;9.40;1.00
29777;DHT22;16677;52.224;7.484;2023-12-29T16:24:30;9.40;99.90
29777;DHT22;16677;52.224;7.484;2023-12-29T16:26:57;9.40;99.90
29777;DHT22;16677;52.224;7.484;2023-12-29T16:29:25;9.40;99.90
29777;DHT22;16677;52.224;7.484;2023-12-29T16:31:52;9.30;99.90
29777;DHT22;16677;52.224;7.484;2023-12-29T16:34:19;9.30;99.90
29777;DHT22;16677;52.224;7.484;2023-12-29T16:36:56;9.40;1.00